Rockyford, South Dakota
Current Conditions -  °F | °C
As of 3:52 AM on Sunday 21 Dec 2014 (Local Time) from KIEN Reporting Station
Clear Clear  
Wind Chill: 28°   Ceiling: Unl
Heat Index: 28°   Visibility: 10mi
Dew Point: 22°   Wind: 3mph
Humidity: 78%   Direction: 270°W
Pressure: 29.69"   Gusts: NA
Location:  43.2863°N, 102.209°W
Report Text: KIEN 211052Z AUTO 27003KT 10SM CLR M02/M06 A2969 RMK AO2 SLP074 T10221056
Loading
Personal Weather Stations






























Interactive Weather Map New forecast layout! Learn more

10-Day Weather Forecast

Advertisements
Track Severe Weather on mobile